Williams, AZ

7:45 PM MST on January 21, 2017 (GMT -0700)
Williams

Weather History for KCMR - February, 2012

Change the Weather History Date:

Saturday, February 18, 2012

  Actual Average (K40G) Record (K40G)
Temperature  
Mean Temperature 32 °F -  
Max Temperature 50 °F 45 °F 64 °F (2004)
Min Temperature 15 °F 36 °F 35 °F (1998)
Degree Days  
Heating Degree Days 32    
Moisture  
Dew Point 11 °F    
Average Humidity 47    
Maximum Humidity 79    
Minimum Humidity 16    
Precipitation  
Precipitation 0.00 in - - ()
Sea Level Pressure  
Sea Level Pressure 30.16 in    
Wind  
Wind Speed 9 mph (South)    
Max Wind Speed 15 mph    
Max Gust Speed 23 mph    
Visibility 10 miles    
Events      
Averages and records for this station are not official NWS values.
T = Trace of Precipitation, MM = Missing Value Source: NWS Daily Summary

Daily Weather History Graph

Daily Weather History Graph

Search for Another Location

Airport or City:

Trip Planner

Search our weather history database for the weather conditions in past years. The results will help you decide how hot, cold, wet, or windy it might be!

Date:

Astronomy

Feb. 18, 2012 Rise Set
Actual Time 7:12 AM MST 6:13 PM MST
Civil Twilight 6:46 AM MST 6:39 PM MST
Nautical Twilight 6:16 AM MST 7:09 PM MST
Astronomical Twilight 5:47 AM MST 7:38 PM MST
Moon 4:49 AM MST (2/18) 3:19 PM MST (2/18)
Length of Visible Light 11h 53m
Length of Day
11h 01m
Waning Crescent, 11% of the Moon is Illuminated
Feb 18
Waning Crescent
Feb 21
New
Feb 29
First Quarter
Mar 8
Full
Mar 14
Last Quarter

Hourly Weather History & Observations

Time (MST) Temp. Windchill Dew Point Humidity Pressure Visibility Wind Dir Wind Speed Gust Speed Precip Events Conditions
12:15 AM 19.4 °F 10.4 °F 10.4 °F 68% 30.21 in 10.0 mi SSE 6.9 mph - N/A   Clear
12:35 AM 19.4 °F 8.6 °F 10.4 °F 68% 30.21 in 10.0 mi SSE 9.2 mph - N/A   Clear
1:15 AM 19.4 °F 8.6 °F 10.4 °F 68% 30.20 in 10.0 mi SSE 9.2 mph - N/A   Clear
1:35 AM 17.6 °F 6.4 °F 10.4 °F 73% 30.19 in 10.0 mi SSE 9.2 mph - N/A   Clear
1:55 AM 17.6 °F 7.3 °F 10.4 °F 73% 30.19 in 10.0 mi SSE 8.1 mph - N/A   Clear
2:15 AM 17.6 °F 7.3 °F 10.4 °F 73% 30.19 in 10.0 mi SSE 8.1 mph - N/A   Clear
2:35 AM 19.4 °F 10.4 °F 12.2 °F 74% 30.20 in 10.0 mi SSE 6.9 mph - N/A   Clear
2:55 AM 19.4 °F 10.4 °F 12.2 °F 74% 30.20 in 10.0 mi SSE 6.9 mph - N/A   Clear
3:15 AM 19.4 °F 10.4 °F 12.2 °F 74% 30.20 in 10.0 mi SSE 6.9 mph - N/A   Clear
3:35 AM 17.6 °F 5.7 °F 10.4 °F 73% 30.19 in 10.0 mi SSE 10.4 mph - N/A   Clear
3:55 AM 19.4 °F 9.5 °F 10.4 °F 68% 30.19 in 10.0 mi SSE 8.1 mph - N/A   Clear
4:15 AM 17.6 °F 6.4 °F 10.4 °F 73% 30.19 in 10.0 mi SSE 9.2 mph - N/A   Clear
4:35 AM 17.6 °F 5.7 °F 10.4 °F 73% 30.18 in 10.0 mi SSE 10.4 mph - N/A   Clear
4:55 AM 17.6 °F 7.3 °F 10.4 °F 73% 30.19 in 10.0 mi South 8.1 mph - N/A   Clear
5:15 AM 15.8 °F 4.2 °F 10.4 °F 79% 30.19 in 10.0 mi SSE 9.2 mph - N/A   Clear
5:35 AM 15.8 °F 5.1 °F 10.4 °F 79% 30.19 in 10.0 mi SSE 8.1 mph - N/A   Clear
5:55 AM 17.6 °F 6.4 °F 10.4 °F 73% 30.19 in 10.0 mi SSE 9.2 mph - N/A   Clear
6:15 AM 19.4 °F 8.6 °F 10.4 °F 68% 30.20 in 10.0 mi SSE 9.2 mph - N/A   Clear
6:35 AM 17.6 °F 6.4 °F 10.4 °F 73% 30.20 in 10.0 mi SSE 9.2 mph - N/A   Clear
6:55 AM 17.6 °F 5.0 °F 10.4 °F 73% 30.19 in 10.0 mi SSE 11.5 mph - N/A   Clear
7:15 AM 17.6 °F 5.7 °F 10.4 °F 73% 30.19 in 10.0 mi SSE 10.4 mph - N/A   Clear
7:35 AM 17.6 °F 5.7 °F 10.4 °F 73% 30.20 in 10.0 mi SSE 10.4 mph - N/A   Clear
7:55 AM 23.0 °F 12.4 °F 12.2 °F 63% 30.20 in 10.0 mi SSE 10.4 mph - N/A   Clear
8:15 AM 24.8 °F 16.9 °F 14.0 °F 64% 30.21 in 10.0 mi South 6.9 mph - N/A   Clear
8:35 AM 26.6 °F 17.5 °F 14.0 °F 59% 30.21 in 10.0 mi SSE 9.2 mph - N/A   Clear
8:55 AM 28.4 °F 20.4 °F 14.0 °F 55% 30.21 in 10.0 mi SSE 8.1 mph - N/A   Clear
9:15 AM 32.0 °F 25.6 °F 15.8 °F 51% 30.21 in 10.0 mi SSE 6.9 mph - N/A   Clear
9:35 AM 37.4 °F 32.1 °F 15.8 °F 41% 30.20 in 10.0 mi SSE 6.9 mph - N/A   Clear
9:55 AM 42.8 °F 39.3 °F 8.6 °F 25% 30.20 in 10.0 mi SSE 5.8 mph - N/A   Clear
10:15 AM 44.6 °F 40.7 °F 5.0 °F 20% 30.19 in 10.0 mi SW 6.9 mph - N/A   Clear
10:35 AM 44.6 °F 41.4 °F 5.0 °F 20% 30.19 in 10.0 mi SW 5.8 mph - N/A   Clear
10:55 AM 46.4 °F 41.5 °F 5.0 °F 18% 30.19 in 10.0 mi SSW 10.4 mph - N/A   Clear
11:15 AM 46.4 °F 42.9 °F 5.0 °F 18% 30.19 in 10.0 mi SW 6.9 mph - N/A   Clear
11:35 AM 48.2 °F - 6.8 °F 19% 30.18 in 10.0 mi SW 8.1 mph - N/A   Clear
11:55 AM 48.2 °F - 5.0 °F 17% 30.18 in 10.0 mi SW 10.4 mph - N/A   Clear
12:15 PM 48.2 °F - 6.8 °F 19% 30.17 in 10.0 mi SW 10.4 mph 16.1 mph N/A   Clear
12:35 PM 48.2 °F - 5.0 °F 17% 30.16 in 10.0 mi SSW 11.5 mph - N/A   Clear
12:55 PM 50.0 °F - 5.0 °F 16% 30.15 in 10.0 mi SW 12.7 mph 18.4 mph N/A   Clear
1:15 PM 50.0 °F - 5.0 °F 16% 30.14 in 10.0 mi SSW 12.7 mph 16.1 mph N/A   Clear
1:35 PM 50.0 °F - 5.0 °F 16% 30.13 in 10.0 mi SW 11.5 mph 17.3 mph N/A   Clear
2:15 PM 48.2 °F - 5.0 °F 17% 30.12 in 10.0 mi SSW 8.1 mph - N/A   Clear
2:35 PM 50.0 °F - 5.0 °F 16% 30.12 in 10.0 mi SW 11.5 mph 17.3 mph N/A   Clear
2:55 PM 48.2 °F - 8.6 °F 20% 30.12 in 10.0 mi SW 10.4 mph - N/A   Clear
3:15 PM 48.2 °F - 8.6 °F 20% 30.11 in 10.0 mi SSW 12.7 mph 18.4 mph N/A   Clear
3:35 PM 48.2 °F - 8.6 °F 20% 30.10 in 10.0 mi SSW 11.5 mph 16.1 mph N/A   Clear
4:15 PM 48.2 °F - 10.4 °F 22% 30.09 in 10.0 mi SW 15.0 mph 18.4 mph N/A   Clear
4:35 PM 48.2 °F - 14.0 °F 25% 30.09 in 10.0 mi SW 11.5 mph 21.9 mph N/A   Clear
4:55 PM 46.4 °F 40.4 °F 14.0 °F 27% 30.09 in 10.0 mi SSW 13.8 mph 20.7 mph N/A   Clear
5:15 PM 46.4 °F 40.4 °F 15.8 °F 29% 30.09 in 10.0 mi South 13.8 mph 23.0 mph N/A   Clear
5:35 PM 44.6 °F 37.8 °F 15.8 °F 31% 30.09 in 10.0 mi SSW 15.0 mph 19.6 mph N/A   Clear
5:55 PM 42.8 °F 35.8 °F 17.6 °F 36% 30.08 in 10.0 mi SSW 13.8 mph 17.3 mph N/A   Clear
6:15 PM 41.0 °F 35.2 °F 15.8 °F 36% 30.08 in 10.0 mi SSW 9.2 mph - N/A   Clear
6:55 PM 39.2 °F 32.5 °F 17.6 °F 42% 30.09 in 10.0 mi South 10.4 mph - N/A   Clear
7:15 PM 37.4 °F 31.4 °F 17.6 °F 45% 30.09 in 10.0 mi South 8.1 mph - N/A   Clear
7:35 PM 37.4 °F 31.4 °F 17.6 °F 45% 30.09 in 10.0 mi South 8.1 mph - N/A   Clear
7:55 PM 37.4 °F 31.4 °F 17.6 °F 45% 30.09 in 10.0 mi South 8.1 mph - N/A   Clear
8:15 PM 35.6 °F 29.9 °F 17.6 °F 48% 30.09 in 10.0 mi South 6.9 mph - N/A   Clear
8:35 PM 35.6 °F 30.7 °F 19.4 °F 52% 30.09 in 10.0 mi South 5.8 mph - N/A   Clear
8:55 PM 35.6 °F 29.2 °F 17.6 °F 48% 30.08 in 10.0 mi South 8.1 mph 16.1 mph N/A   Clear
9:15 PM 35.6 °F 29.2 °F 17.6 °F 48% 30.08 in 10.0 mi South 8.1 mph - N/A   Clear
9:35 PM 32.0 °F 25.6 °F 17.6 °F 55% 30.09 in 10.0 mi SSW 6.9 mph - N/A   Clear
9:55 PM 32.0 °F 24.2 °F 19.4 °F 60% 30.09 in 10.0 mi South 9.2 mph - N/A   Clear
10:15 PM 32.0 °F 24.8 °F 17.6 °F 55% 30.08 in 10.0 mi South 8.1 mph - N/A   Clear
10:35 PM 32.0 °F 24.8 °F 19.4 °F 60% 30.08 in 10.0 mi South 8.1 mph - N/A   Clear
10:55 PM 32.0 °F 23.0 °F 19.4 °F 60% 30.07 in 10.0 mi South 11.5 mph - N/A   Clear
11:15 PM 32.0 °F 23.0 °F 19.4 °F 60% 30.06 in 10.0 mi SE 11.5 mph - N/A   Clear
11:35 PM 32.0 °F 24.2 °F 19.4 °F 60% 30.06 in 10.0 mi SSE 9.2 mph - N/A   Clear
11:55 PM 32.0 °F 24.2 °F 19.4 °F 60% 30.06 in 10.0 mi SE 9.2 mph - N/A   Clear